METAR Data
IDs: Format: Raw Decoded Include TAF

Data at: 1308 UTC 11 Dec 2018

KSAT 111251Z 31003KT 10SM CLR 01/M01 A3038 RMK AO2 SLP282 T00111006
KSAT 111151Z 00000KT 10SM CLR 01/M01 A3037 RMK AO2 SLP278 T00111006 10039 20006 58004
KSAT 111051Z 31003KT 10SM CLR 01/M01 A3037 RMK AO2 SLP278 T00111006
KSAT 110951Z 31005KT 10SM CLR 01/M01 A3039 RMK AO2 SLP284 T00111006
KSAT 110851Z 30006KT 10SM CLR 02/00 A3038 RMK AO2 SLP281 T00170000 58008
KSAT 110751Z 30005KT 10SM CLR 02/00 A3039 RMK AO2 SLP284 T00220000
KSAT 110651Z 30005KT 10SM CLR 03/01 A3040 RMK AO2 SLP287 T00280006
KSAT 110551Z 30003KT 10SM CLR 03/01 A3041 RMK AO2 SLP290 T00330011 10106 20033 401610006 50002
KSAT 110451Z 32003KT 10SM CLR 05/02 A3042 RMK AO2 SLP292 T00500017
KSAT 110351Z 31003KT 10SM CLR 07/02 A3040 RMK AO2 SLP288 T00670017
KSAT 110251Z 00000KT 10SM CLR 09/01 A3040 RMK AO2 SLP288 T00890006 51014
KSAT 110151Z 08003KT 10SM CLR 09/01 A3039 RMK AO2 SLP285 T00940006
KSAT 110051Z 11004KT 10SM CLR 09/01 A3038 RMK AO2 SLP283 T00890011
KSAT 102351Z 14006KT 10SM FEW250 11/02 A3036 RMK AO2 SLP275 T01060017 10161 20100 53007
KSAT 102251Z 10004KT 10SM FEW250 14/02 A3034 RMK AO2 SLP268 T01440017
KSAT 102151Z 13003KT 10SM FEW250 15/01 A3034 RMK AO2 SLP265 T01500011
KSAT 102051Z 00000KT 10SM FEW250 16/02 A3034 RMK AO2 SLP266 T01560017 56026
KSAT 101951Z 00000KT 10SM FEW250 14/00 A3035 RMK AO2 SLP271 T01440000
KSAT 101851Z 00000KT 10SM CLR 14/M03 A3038 RMK AO2 SLP279 T01441028
KSAT 101751Z 00000KT 10SM CLR 12/M03 A3042 RMK AO2 SLP294 T01221028 10122 20006 58005
KSAT 101651Z VRB03KT 10SM CLR 12/M03 A3044 RMK AO2 SLP301 T01171033
KSAT 101551Z VRB03KT 10SM CLR 09/M02 A3045 RMK AO2 SLP303 T00941017
KSAT 101451Z 31004KT 10SM CLR 06/M01 A3043 RMK AO2 SLP300 T00561006 53017
KSAT 101351Z 34005KT 10SM CLR 03/M02 A3041 RMK AO2 SLP293 T00281017
KSAT 101251Z 34003KT 10SM CLR 01/M02 A3040 RMK AO2 SLP289 T00061022
KSAT 101151Z 00000KT 10SM CLR 02/M01 A3038 RMK AO2 SLP282 T00221006 10028 20011 53000
KSAT 101051Z 34003KT 10SM CLR 02/M01 A3037 RMK AO2 SLP279 T00171006
KSAT 100951Z 30005KT 10SM CLR 01/M01 A3038 RMK AO2 SLP281 T00111006
KSAT 100851Z 31006KT 10SM CLR 02/M01 A3038 RMK AO2 SLP281 T00221006 58005
KSAT 100751Z 30005KT 10SM CLR 02/M01 A3039 RMK AO2 SLP283 T00171006
KSAT 100651Z 29003KT 10SM CLR 03/01 A3039 RMK AO2 SLP285 T00280006
KSAT 100551Z 32005KT 10SM CLR 03/01 A3040 RMK AO2 SLP286 T00330006 10089 20033 401390028 50008
KSAT 100451Z 32005KT 10SM CLR 03/01 A3040 RMK AO2 SLP288 T00330006
KSAT 100351Z 30004KT 10SM CLR 04/01 A3039 RMK AO2 SLP284 T00440011
KSAT 100251Z 34005KT 10SM CLR 05/02 A3037 RMK AO2 SLP279 T00500017 53018
KSAT 100151Z 34005KT 10SM FEW039 06/02 A3035 RMK AO2 SLP273 T00610017